Main page
METAR-TAF:

METAR-TAF

Airports :

Náměšť nad Oslavou, Czech Republic

latitude: 49-09-57N, longitude: 16-07-30E, elevation: 472 m

Current weather observation

The report was made 31 minutes ago, at 14:03 UTC
Wind 8 kt from the South/Southeast, varying between East/Southeast and South/Southwest
Temperature 23°C
Humidity 36%
Pressure 1023 hPa
Visibility 10 km or more
no clouds below 1500 m and no cumulonimbus

METAR: LKNA 281403Z 16008KT 120V200 CAVOK 23/07 Q1023 NOSIG RMK BLU BLU

Time: 16:34 (14:34 UTC)

Forecast

The report was made 3 hours and 34 minutes ago, at 11:00 UTC
Forecast valid from 28 at 12 UTC to 29 at 12 UTC
Wind 8 kt from the Southeast
Visibility 10 km or more
no clouds below 1500 m and no cumulonimbus

TAF: LKNA 281100Z 2812/2912 13008KT CAVOK

Weather observations and forecasts of more than 4000 airports (METAR and TAF reports).

The available stations are represented by yellow and red dots on the map.

Hover mouse over dot to see the name of the station.

Then click to see weather observations and forecasts.

To change the map : click on the green buttons with a black cross to zoom in, on the green button with a dash to zoom out, or on the green arrows for adjacent maps.


METAR-TAF: